Strona główna
METAR-TAF:

METAR-TAF

Lotnisko :

Port lotniczy EuroAirport Bazylea-Miluza-Fryburg

Bazylea-Miluza-Fryburg, Francja

Szerokość geograficzna: 47-36N, Długość geograficzna: 007-31E, wysokość: 270 m

Aktualna obserwacja pogody

Raport powstał 31 minut temu, godzina 12:30 UTC
Wiatr 7 kt od zachód, zmienny między południowo-południowy zachód i północny zachód
Temperatura 28°C
Wilgotność 30%
Ciśnienie 1013 hPa
Widzialność 10 km lub więcej
Brak chmur poniżej 1500 m i brak chmur cumulonimbus

METAR: LFSB 171230Z 26007KT 200V320 CAVOK 28/09 Q1013 NOSIG

czas: 15:01 (13:01 UTC)

Prognoza

Raport powstał 2 godziny i 1 minut temu, godzina 11:00 UTC
Prognoza ważna od 17 godzina 12 UTC do 18 godzina 12 UTC
Wiatr 7 kt od zachód
Widzialność 10 km lub więcej
Brak chmur poniżej 1500 m i brak chmur cumulonimbus

TAF: LFSB 171100Z 1712/1812 28007KT CAVOK

Obserwacja i prognoza pogody dla ponad 4000 lotnisk (raport METAR i TAF).

Dostępne stacje oznaczono żółtymi i czerwonymi punktami na mapie.

Najedź kursorem aby zobaczyć nazwę stacji.

Kliknij aby zobaczyć obserwacje i prognozy pogody.

Aby zmienić mapę: kliknij na zielony przycisk z czarnym krzyżykiem, aby powiększyć; na zielony przycisk z myślnikiem, aby pomniejszyć; na zielone strzałki, aby przejść do map sąsiednich.


METAR-TAF: